Terminal Aerodrome Forecast
Issued by NWS Wichita, KS

Home | Current Version | Previous Version | Text Only | Print | Product List | Glossary On
Versions: 1 2 3 4 5 6 7 8 9 10 11 12 13 14 15 16 17 18 19 20 21 22 23 24 25 26 27
910
FTUS43 KICT 251731
TAFICT
TAF
KICT 251731Z 2518/2618 17020G30KT P6SM SCT018 BKN025
      TEMPO 2518/2519 BKN018
     FM251930 18020G30KT P6SM BKN035
     FM252300 17015G20KT P6SM VCTS BKN040CB
     FM260300 17012KT P6SM SCT040 BKN250
     FM260800 17012KT P6SM BKN015
     FM261100 17011KT P6SM BKN008
     FM261700 17012KT P6SM BKN025=

USA.gov is the U.S. government's official web portal to all federal, state and local government web resources and services.